Terminal Aerodrome Forecast
Issued by NWS Missoula, MT

Home | Current Version | Previous Version | Text Only | Print | Product List | Glossary On
Versions: 1 2 3 4 5 6 7 8 9 10 11 12 13 14 15 16 17 18
427
FTUS45 KMSO 270604 RRA
TAFGPI
TAF
KGPI 270604Z 2706/2806 13007KT P6SM VCSH BKN060 BKN100
     FM270900 16005KT P6SM BKN100
     FM271700 19009KT P6SM VCSH BKN100
     FM280100 VRB03KT P6SM SCT100=

USA.gov is the U.S. government's official web portal to all federal, state and local government web resources and services.